createdAt,value
2022-11-23T00:00:55.474Z,8.79
2022-11-23T00:01:55.589Z,8.78
2022-11-23T00:02:55.647Z,8.78
2022-11-23T00:03:55.710Z,8.83
2022-11-23T00:04:55.792Z,8.83
2022-11-23T00:05:55.864Z,8.83
2022-11-23T00:06:55.944Z,8.80
2022-11-23T00:07:56.036Z,8.80
2022-11-23T00:08:56.125Z,8.79
2022-11-23T00:09:56.188Z,8.78
2022-11-23T00:10:56.279Z,8.78
2022-11-23T00:11:56.351Z,8.78
2022-11-23T00:12:56.458Z,8.79
2022-11-23T00:13:56.520Z,8.76
2022-11-23T00:14:56.615Z,8.76
2022-11-23T00:15:56.690Z,8.71
2022-11-23T00:16:56.782Z,8.68
2022-11-23T00:17:56.868Z,8.64
2022-11-23T00:18:56.945Z,8.61
2022-11-23T00:19:57.021Z,8.60
2022-11-23T00:20:57.120Z,8.61
2022-11-23T00:21:57.186Z,8.61
2022-11-23T00:22:57.293Z,8.64
2022-11-23T00:23:57.358Z,8.64
2022-11-23T00:24:57.463Z,8.61
2022-11-23T00:25:57.529Z,8.61
2022-11-23T00:26:57.621Z,8.60
2022-11-23T00:27:57.721Z,8.61
2022-11-23T00:28:57.787Z,8.61
2022-11-23T00:29:57.854Z,8.64
2022-11-23T00:30:57.935Z,8.67
2022-11-23T00:31:58.005Z,8.63
2022-11-23T00:32:58.119Z,8.64
2022-11-23T00:33:58.192Z,8.67
2022-11-23T00:34:58.266Z,8.68
2022-11-23T00:35:58.338Z,8.65
2022-11-23T00:36:58.432Z,8.70
2022-11-23T00:37:58.521Z,8.75
2022-11-23T00:38:58.588Z,8.75
2022-11-23T00:39:58.655Z,8.76
2022-11-23T00:40:58.738Z,8.78
2022-11-23T00:41:58.813Z,8.76
2022-11-23T00:42:58.905Z,8.70
2022-11-23T00:43:58.963Z,8.71
2022-11-23T00:44:59.056Z,8.68
2022-11-23T00:45:59.126Z,8.70
2022-11-23T00:46:59.222Z,8.71
2022-11-23T00:47:59.310Z,8.73
2022-11-23T00:48:59.376Z,8.71
2022-11-23T00:49:59.457Z,8.68
2022-11-23T00:50:59.545Z,8.70
2022-11-23T00:51:59.621Z,8.76
2022-11-23T00:52:59.723Z,8.82
2022-11-23T00:53:59.788Z,8.85
2022-11-23T00:54:59.875Z,8.86
2022-11-23T00:55:59.944Z,8.86
2022-11-23T00:57:00.040Z,8.88
2022-11-23T00:58:00.140Z,8.91
2022-11-23T00:59:00.200Z,8.88
2022-11-23T01:00:00.277Z,8.85
2022-11-23T01:01:00.373Z,8.83
2022-11-23T01:02:00.588Z,8.83
2022-11-23T01:03:00.547Z,8.80
2022-11-23T01:04:00.603Z,8.80
2022-11-23T01:05:00.702Z,8.80
2022-11-23T01:06:00.767Z,8.75
2022-11-23T01:07:00.847Z,8.78
2022-11-23T01:08:00.939Z,8.79
2022-11-23T01:09:01.000Z,8.83
2022-11-23T01:10:01.075Z,8.88
2022-11-23T01:11:01.168Z,8.91
2022-11-23T01:12:01.245Z,8.96
2022-11-23T01:13:01.345Z,8.98
2022-11-23T01:14:01.413Z,9.01
2022-11-23T01:15:01.503Z,9.03
2022-11-23T01:16:01.581Z,9.06
2022-11-23T01:17:01.668Z,9.01
2022-11-23T01:18:01.755Z,8.98
2022-11-23T01:19:01.821Z,8.96
2022-11-23T01:20:01.887Z,8.89
2022-11-23T01:21:01.984Z,8.88
2022-11-23T01:22:02.057Z,8.85
2022-11-23T01:23:02.402Z,8.79
2022-11-23T01:24:02.216Z,8.76
2022-11-23T01:25:02.309Z,8.75
2022-11-23T01:26:02.362Z,8.73
2022-11-23T01:27:02.460Z,8.71
2022-11-23T01:28:02.547Z,8.70
2022-11-23T01:29:02.609Z,8.64
2022-11-23T01:30:02.682Z,8.61
2022-11-23T01:31:02.772Z,8.58
2022-11-23T01:32:02.843Z,8.57
2022-11-23T01:33:02.948Z,8.54
2022-11-23T01:34:03.012Z,8.57
2022-11-23T01:35:03.093Z,8.55
2022-11-23T01:36:03.166Z,8.55
2022-11-23T01:37:03.259Z,8.54
2022-11-23T01:38:03.333Z,8.57
2022-11-23T01:39:03.396Z,8.55
2022-11-23T01:40:03.467Z,8.52
2022-11-23T01:41:03.568Z,8.50
2022-11-23T01:42:03.658Z,8.46
2022-11-23T01:43:03.764Z,8.49
2022-11-23T01:44:03.834Z,8.47
2022-11-23T01:45:03.923Z,8.46
2022-11-23T01:46:03.994Z,8.45
2022-11-23T01:47:04.085Z,8.47
2022-11-23T01:48:04.172Z,8.47
2022-11-23T01:49:04.254Z,8.46
2022-11-23T01:50:04.335Z,8.43
2022-11-23T01:51:04.410Z,8.42
2022-11-23T01:52:04.505Z,8.37
2022-11-23T01:53:04.614Z,8.36
2022-11-23T01:54:04.682Z,8.39
2022-11-23T01:55:08.483Z,8.37
2022-11-23T01:56:04.845Z,8.34
2022-11-23T01:57:04.933Z,8.31
2022-11-23T01:58:05.057Z,8.32
2022-11-23T01:59:05.082Z,8.34
2022-11-23T02:00:05.277Z,8.31
2022-11-23T02:01:05.313Z,8.31
2022-11-23T02:02:05.326Z,8.32
2022-11-23T02:03:05.419Z,8.34
2022-11-23T02:04:05.495Z,8.29
2022-11-23T02:05:05.546Z,8.28
2022-11-23T02:06:05.640Z,8.28
2022-11-23T02:07:05.731Z,8.28
2022-11-23T02:08:05.822Z,8.24
2022-11-23T02:09:05.862Z,8.25
2022-11-23T02:10:05.961Z,8.27
2022-11-23T02:11:06.029Z,8.24
2022-11-23T02:12:06.122Z,8.21
2022-11-23T02:13:06.206Z,8.20
2022-11-23T02:14:06.270Z,8.21
2022-11-23T02:15:06.351Z,8.22
2022-11-23T02:16:06.447Z,8.22
2022-11-23T02:17:06.516Z,8.21
2022-11-23T02:18:06.614Z,8.21
2022-11-23T02:19:06.678Z,8.22
2022-11-23T02:20:06.775Z,8.22
2022-11-23T02:21:06.842Z,8.27
2022-11-23T02:22:06.939Z,8.28
2022-11-23T02:23:07.018Z,8.29
2022-11-23T02:24:07.082Z,8.25
2022-11-23T02:25:07.149Z,8.24
2022-11-23T02:26:07.244Z,8.27
2022-11-23T02:27:07.312Z,8.28
2022-11-23T02:28:07.427Z,8.27
2022-11-23T02:29:07.481Z,8.27
2022-11-23T02:30:07.584Z,8.27
2022-11-23T02:31:07.646Z,8.27
2022-11-23T02:32:07.743Z,8.25
2022-11-23T02:33:07.820Z,8.24
2022-11-23T02:34:07.883Z,8.25
2022-11-23T02:35:07.943Z,8.25
2022-11-23T02:36:08.038Z,8.24
2022-11-23T02:37:08.107Z,8.25
2022-11-23T02:38:08.216Z,8.22
2022-11-23T02:39:08.283Z,8.22
2022-11-23T02:40:08.368Z,8.24
2022-11-23T02:41:08.436Z,8.22
2022-11-23T02:42:08.534Z,8.25
2022-11-23T02:43:08.608Z,8.25
2022-11-23T02:44:08.672Z,8.25
2022-11-23T02:45:08.744Z,8.20
2022-11-23T02:46:08.839Z,8.17
2022-11-23T02:47:08.944Z,8.17
2022-11-23T02:48:08.996Z,8.14
2022-11-23T02:49:09.052Z,8.13
2022-11-23T02:50:09.148Z,8.17
2022-11-23T02:51:09.214Z,8.17
2022-11-23T02:52:09.307Z,8.12
2022-11-23T02:53:09.393Z,8.13
2022-11-23T02:54:09.454Z,8.14
2022-11-23T02:55:09.529Z,8.10
2022-11-23T02:56:09.624Z,8.10
2022-11-23T02:57:09.684Z,8.10
2022-11-23T02:58:09.801Z,8.13
2022-11-23T02:59:09.849Z,8.12
2022-11-23T03:00:09.943Z,8.18
2022-11-23T03:01:10.051Z,8.20
2022-11-23T03:02:10.097Z,8.21
2022-11-23T03:03:10.186Z,8.17
2022-11-23T03:04:10.247Z,8.13
2022-11-23T03:05:10.318Z,8.09
2022-11-23T03:06:10.418Z,8.12
2022-11-23T03:07:10.570Z,8.09
2022-11-23T03:08:10.594Z,8.09
2022-11-23T03:09:10.657Z,8.06
2022-11-23T03:10:10.752Z,8.04
2022-11-23T03:11:10.823Z,7.96
2022-11-23T03:12:10.914Z,8.00
2022-11-23T03:13:11.004Z,7.99
2022-11-23T03:14:11.070Z,7.95
2022-11-23T03:15:11.134Z,7.94
2022-11-23T03:16:11.227Z,7.92
2022-11-23T03:17:11.303Z,7.94
2022-11-23T03:18:11.389Z,7.94
2022-11-23T03:19:11.454Z,7.94
2022-11-23T03:20:11.536Z,7.92
2022-11-23T03:21:11.609Z,7.95
2022-11-23T03:22:11.704Z,7.95
2022-11-23T03:23:11.783Z,7.96
2022-11-23T03:24:11.862Z,7.99
2022-11-23T03:25:11.919Z,7.95
2022-11-23T03:26:13.348Z,7.94
2022-11-23T03:27:12.069Z,7.92
2022-11-23T03:28:12.180Z,7.92
2022-11-23T03:29:12.235Z,7.91
2022-11-23T03:30:12.323Z,7.89
2022-11-23T03:31:12.395Z,7.91
2022-11-23T03:32:12.492Z,7.88
2022-11-23T03:33:12.572Z,7.88
2022-11-23T03:34:12.633Z,7.85
2022-11-23T03:35:12.706Z,7.88
2022-11-23T03:36:12.796Z,7.91
2022-11-23T03:37:12.870Z,7.89
2022-11-23T03:38:12.961Z,7.88
2022-11-23T03:39:13.027Z,7.91
2022-11-23T03:40:13.117Z,7.91
2022-11-23T03:41:13.191Z,7.92
2022-11-23T03:42:13.285Z,7.92
2022-11-23T03:43:13.373Z,7.89
2022-11-23T03:44:13.433Z,7.89
2022-11-23T03:45:13.504Z,7.89
2022-11-23T03:46:13.598Z,7.91
2022-11-23T03:47:13.670Z,7.91
2022-11-23T03:48:13.774Z,7.92
2022-11-23T03:49:13.837Z,7.91
2022-11-23T03:50:13.932Z,7.89
2022-11-23T03:51:14.002Z,7.91
2022-11-23T03:52:14.099Z,7.86
2022-11-23T03:53:14.179Z,7.85
2022-11-23T03:54:14.240Z,7.82
2022-11-23T03:55:14.309Z,7.77
2022-11-23T03:56:14.402Z,7.73
2022-11-23T03:57:14.477Z,7.71
2022-11-23T03:58:14.591Z,7.70
2022-11-23T03:59:14.620Z,7.70
2022-11-23T04:00:14.714Z,7.71
2022-11-23T04:01:14.858Z,7.71
2022-11-23T04:02:14.887Z,7.74
2022-11-23T04:03:14.971Z,7.76
2022-11-23T04:04:15.049Z,7.74
2022-11-23T04:05:15.101Z,7.74
2022-11-23T04:06:15.195Z,7.76
2022-11-23T04:07:15.302Z,7.76
2022-11-23T04:08:15.351Z,7.74
2022-11-23T04:09:15.410Z,7.73
2022-11-23T04:10:15.492Z,7.79
2022-11-23T04:11:15.565Z,7.81
2022-11-23T04:12:15.656Z,7.84
2022-11-23T04:13:15.755Z,7.88
2022-11-23T04:14:15.828Z,7.91
2022-11-23T04:15:15.899Z,7.96
2022-11-23T04:16:15.994Z,7.95
2022-11-23T04:17:16.056Z,7.99
2022-11-23T04:18:16.144Z,7.99
2022-11-23T04:19:16.206Z,7.99
2022-11-23T04:20:16.301Z,7.99
2022-11-23T04:21:16.370Z,7.96
2022-11-23T04:22:16.469Z,7.99
2022-11-23T04:23:16.552Z,7.99
2022-11-23T04:24:16.614Z,7.99
2022-11-23T04:25:16.699Z,7.96
2022-11-23T04:26:16.794Z,7.95
2022-11-23T04:27:16.868Z,8.00
2022-11-23T04:28:16.960Z,8.02
2022-11-23T04:29:17.024Z,8.03
2022-11-23T04:30:17.127Z,8.03
2022-11-23T04:31:17.189Z,8.03
2022-11-23T04:32:17.284Z,8.04
2022-11-23T04:33:17.366Z,8.03
2022-11-23T04:34:17.432Z,8.03
2022-11-23T04:35:17.500Z,8.02
2022-11-23T04:36:17.591Z,8.04
2022-11-23T04:37:17.666Z,7.99
2022-11-23T04:38:17.776Z,7.96
2022-11-23T04:39:17.849Z,7.95
2022-11-23T04:40:17.923Z,7.89
2022-11-23T04:41:18.000Z,7.89
2022-11-23T04:42:18.094Z,7.89
2022-11-23T04:43:18.192Z,7.89
2022-11-23T04:44:18.243Z,7.91
2022-11-23T04:45:18.312Z,7.89
2022-11-23T04:46:18.416Z,7.84
2022-11-23T04:47:18.473Z,7.82
2022-11-23T04:48:18.606Z,7.74
2022-11-23T04:49:18.626Z,7.74
2022-11-23T04:50:18.718Z,7.74
2022-11-23T04:51:18.792Z,7.69
2022-11-23T04:52:18.884Z,7.62
2022-11-23T04:53:18.977Z,7.62
2022-11-23T04:54:19.049Z,7.60
2022-11-23T04:55:19.120Z,7.62
2022-11-23T04:56:19.197Z,7.57
2022-11-23T04:57:19.265Z,7.52
2022-11-23T04:58:19.409Z,7.55
2022-11-23T04:59:19.430Z,7.51
2022-11-23T05:00:19.524Z,7.50
2022-11-23T05:01:19.666Z,7.50
2022-11-23T05:02:19.674Z,7.50
2022-11-23T05:03:19.760Z,7.48
2022-11-23T05:04:19.830Z,7.50
2022-11-23T05:05:19.899Z,7.47
2022-11-23T05:06:19.998Z,7.45
2022-11-23T05:07:20.125Z,7.48
2022-11-23T05:08:20.155Z,7.52
2022-11-23T05:09:20.220Z,7.57
2022-11-23T05:10:20.315Z,7.60
2022-11-23T05:11:20.386Z,7.66
2022-11-23T05:12:20.468Z,7.69
2022-11-23T05:13:20.555Z,7.70
2022-11-23T05:14:20.639Z,7.71
2022-11-23T05:15:20.697Z,7.71
2022-11-23T05:16:20.781Z,7.76
2022-11-23T05:17:20.865Z,7.77
2022-11-23T05:18:20.961Z,7.77
2022-11-23T05:19:21.025Z,7.76
2022-11-23T05:20:21.118Z,7.85
2022-11-23T05:21:21.190Z,7.86
2022-11-23T05:22:21.283Z,7.86
2022-11-23T05:23:21.365Z,7.89
2022-11-23T05:24:21.433Z,7.89
2022-11-23T05:25:21.502Z,7.94
2022-11-23T05:26:21.583Z,7.99
2022-11-23T05:27:21.652Z,7.96
2022-11-23T05:29:21.842Z,8.00
2022-11-23T05:30:21.941Z,7.99
2022-11-23T05:31:22.012Z,8.00
2022-11-23T05:32:22.105Z,7.96
2022-11-23T05:33:22.191Z,8.00
2022-11-23T05:34:22.256Z,8.00
2022-11-23T05:35:22.324Z,8.02
2022-11-23T05:36:22.417Z,7.99
2022-11-23T05:37:22.491Z,7.95
2022-11-23T05:38:22.575Z,7.92
2022-11-23T05:39:22.636Z,7.88
2022-11-23T05:40:22.730Z,7.88
2022-11-23T05:41:22.807Z,7.82
2022-11-23T05:42:22.901Z,7.82
2022-11-23T05:43:22.966Z,7.84
2022-11-23T05:44:23.034Z,7.79
2022-11-23T05:45:23.108Z,7.79
2022-11-23T05:46:23.217Z,7.79
2022-11-23T05:47:23.280Z,7.85
2022-11-23T05:48:23.385Z,7.85
2022-11-23T05:49:23.448Z,7.94
2022-11-23T05:50:23.545Z,7.95
2022-11-23T05:51:23.613Z,7.99
2022-11-23T05:52:23.706Z,8.00
2022-11-23T05:53:23.797Z,8.04
2022-11-23T05:54:23.863Z,8.07
2022-11-23T05:55:23.908Z,8.10
2022-11-23T05:56:24.004Z,8.13
2022-11-23T05:57:24.072Z,8.17
2022-11-23T05:58:24.186Z,8.17
2022-11-23T05:59:24.219Z,8.18
2022-11-23T06:00:24.315Z,8.21
2022-11-23T06:01:24.393Z,8.24
2022-11-23T06:02:24.473Z,8.21
2022-11-23T06:03:24.552Z,8.21
2022-11-23T06:04:24.785Z,8.21
2022-11-23T06:05:24.685Z,8.24
2022-11-23T06:06:24.780Z,8.21
2022-11-23T06:07:24.918Z,8.24
2022-11-23T06:08:24.983Z,8.21
2022-11-23T06:09:25.012Z,8.22
2022-11-23T06:10:25.096Z,8.20
2022-11-23T06:11:25.187Z,8.28
2022-11-23T06:12:25.276Z,8.34
2022-11-23T06:13:25.386Z,8.40
2022-11-23T06:14:25.440Z,8.40
2022-11-23T06:15:25.541Z,8.42
2022-11-23T06:16:25.605Z,8.42
2022-11-23T06:17:25.699Z,8.45
2022-11-23T06:18:25.782Z,8.47
2022-11-23T06:19:25.842Z,8.49
2022-11-23T06:20:25.914Z,8.50
2022-11-23T06:21:26.007Z,8.52
2022-11-23T06:22:26.082Z,8.50
2022-11-23T06:23:26.186Z,8.55
2022-11-23T06:24:26.216Z,8.57
2022-11-23T06:25:26.301Z,8.60
2022-11-23T06:26:26.375Z,8.57
2022-11-23T06:27:26.468Z,8.50
2022-11-23T06:28:26.567Z,8.49
2022-11-23T06:29:26.629Z,8.54
2022-11-23T06:30:26.705Z,8.57
2022-11-23T06:31:26.796Z,8.54
2022-11-23T06:32:26.864Z,8.54
2022-11-23T06:33:26.971Z,8.49
2022-11-23T06:34:27.036Z,8.50
2022-11-23T06:35:27.135Z,8.50
2022-11-23T06:36:27.204Z,8.52
2022-11-23T06:37:27.286Z,8.50
2022-11-23T06:38:27.376Z,8.47
2022-11-23T06:39:27.433Z,8.47
2022-11-23T06:40:27.492Z,8.45
2022-11-23T06:41:32.184Z,8.39
2022-11-23T06:42:43.073Z,8.42
2022-11-23T06:43:27.721Z,8.36
2022-11-23T06:44:27.793Z,8.36
2022-11-23T06:45:27.895Z,8.34
2022-11-23T06:46:27.973Z,8.31
2022-11-23T06:47:28.050Z,8.29
2022-11-23T06:48:28.131Z,8.32
2022-11-23T06:49:28.193Z,8.34
2022-11-23T06:50:28.245Z,8.34
2022-11-23T06:51:28.340Z,8.34
2022-11-23T06:52:28.406Z,8.36
2022-11-23T06:53:28.519Z,8.34
2022-11-23T06:54:28.566Z,8.40
2022-11-23T06:55:28.660Z,8.39
2022-11-23T06:56:28.749Z,8.37
2022-11-23T06:57:28.869Z,8.32
2022-11-23T06:58:29.152Z,8.29
2022-11-23T06:59:29.140Z,8.27
2022-11-23T07:00:29.183Z,8.27
2022-11-23T07:01:29.310Z,8.24
2022-11-23T07:02:29.233Z,8.24
2022-11-23T07:03:29.382Z,8.20
2022-11-23T07:04:29.387Z,8.14
2022-11-23T07:05:29.479Z,8.14
2022-11-23T07:06:29.553Z,8.12
2022-11-23T07:07:29.722Z,8.09
2022-11-23T07:08:29.740Z,8.09
2022-11-23T07:09:30.243Z,8.06
2022-11-23T07:10:29.900Z,8.09
2022-11-23T07:11:29.997Z,8.09
2022-11-23T07:12:30.070Z,8.06
2022-11-23T07:13:30.178Z,8.07
2022-11-23T07:14:30.237Z,8.03
2022-11-23T07:15:30.332Z,8.00
2022-11-23T07:16:30.384Z,7.99
2022-11-23T07:17:30.480Z,7.99
2022-11-23T07:18:30.579Z,7.95
2022-11-23T07:19:31.035Z,7.95
2022-11-23T07:20:30.724Z,7.95
2022-11-23T07:21:30.820Z,7.94
2022-11-23T07:22:30.907Z,7.94
2022-11-23T07:23:31.017Z,7.96
2022-11-23T07:24:37.955Z,7.94
2022-11-23T07:25:31.147Z,7.91
2022-11-23T07:26:31.205Z,7.89
2022-11-23T07:27:31.289Z,7.91
2022-11-23T07:28:31.369Z,7.91
2022-11-23T07:29:31.823Z,7.95
2022-11-23T07:30:31.619Z,8.00
2022-11-23T07:31:31.591Z,8.00
2022-11-23T07:32:31.648Z,8.02
2022-11-23T07:33:31.745Z,8.00
2022-11-23T07:34:31.808Z,8.04
2022-11-23T07:35:31.902Z,8.04
2022-11-23T07:36:31.979Z,8.09
2022-11-23T07:37:32.048Z,8.10
2022-11-23T07:38:32.133Z,8.07
2022-11-23T07:39:55.601Z,8.06
2022-11-23T07:40:32.265Z,7.99
2022-11-23T07:41:32.336Z,8.02
2022-11-23T07:42:36.056Z,8.09
2022-11-23T07:43:32.528Z,8.09
2022-11-23T07:44:32.598Z,8.09
2022-11-23T07:45:32.697Z,8.06
2022-11-23T07:46:32.764Z,8.02
2022-11-23T07:47:32.840Z,7.99
2022-11-23T07:48:36.322Z,7.89
2022-11-23T07:49:33.363Z,7.86
2022-11-23T07:50:33.043Z,7.82
2022-11-23T07:51:33.131Z,7.82
2022-11-23T07:52:33.210Z,7.82
2022-11-23T07:53:33.294Z,7.77
2022-11-23T07:54:33.359Z,7.82
2022-11-23T07:55:33.455Z,7.86
2022-11-23T07:56:33.527Z,7.91
2022-11-23T07:57:33.624Z,7.96
2022-11-23T07:58:33.703Z,7.96
2022-11-23T07:59:34.008Z,7.96
2022-11-23T08:00:33.838Z,7.91
2022-11-23T08:01:33.935Z,7.88
2022-11-23T08:02:34.066Z,7.92
2022-11-23T08:03:34.209Z,7.88
2022-11-23T08:04:34.679Z,7.89
2022-11-23T08:05:34.273Z,7.89
2022-11-23T08:06:34.343Z,7.94
2022-11-23T08:07:34.477Z,7.99
2022-11-23T08:08:34.544Z,8.00
2022-11-23T08:09:34.618Z,7.99
2022-11-23T08:10:38.791Z,7.99
2022-11-23T08:11:34.806Z,8.02
2022-11-23T08:12:34.879Z,7.96
2022-11-23T08:13:34.996Z,7.95
2022-11-23T08:14:35.567Z,7.96
2022-11-23T08:15:35.110Z,7.91
2022-11-23T08:16:35.164Z,7.94
2022-11-23T08:17:35.239Z,7.99
2022-11-23T08:18:35.331Z,7.94
2022-11-23T08:19:35.386Z,7.96
2022-11-23T08:20:35.453Z,8.04
2022-11-23T08:21:35.533Z,8.07
2022-11-23T08:22:35.609Z,8.09
2022-11-23T08:23:35.882Z,8.09
2022-11-23T08:24:35.792Z,8.09
2022-11-23T08:25:35.863Z,8.10
2022-11-23T08:26:36.078Z,8.10
2022-11-23T08:27:36.005Z,8.07
2022-11-23T08:28:36.255Z,8.13
2022-11-23T08:29:36.154Z,8.12
2022-11-23T08:30:36.248Z,8.13
2022-11-23T08:31:36.328Z,8.21
2022-11-23T08:32:36.403Z,8.24
2022-11-23T08:33:36.502Z,8.27
2022-11-23T08:34:36.568Z,8.31
2022-11-23T08:35:36.788Z,8.57
2022-11-23T08:36:36.722Z,9.37
2022-11-23T08:37:36.826Z,9.26
2022-11-23T08:38:36.893Z,9.59
2022-11-23T08:39:36.968Z,9.45
2022-11-23T08:40:37.054Z,9.38
2022-11-23T08:41:37.177Z,9.74
2022-11-23T08:42:37.221Z,9.73
2022-11-23T08:43:37.344Z,10.44
2022-11-23T08:44:37.385Z,10.90
2022-11-23T08:45:37.474Z,11.08
2022-11-23T08:46:37.554Z,11.26
2022-11-23T08:47:37.629Z,11.11
2022-11-23T08:48:37.712Z,11.01
2022-11-23T08:49:37.762Z,10.52
2022-11-23T08:50:37.823Z,10.14
2022-11-23T08:51:37.919Z,10.02
2022-11-23T08:52:37.983Z,10.13
2022-11-23T08:53:38.128Z,9.93
2022-11-23T08:54:38.115Z,9.86
2022-11-23T08:55:38.195Z,9.77
2022-11-23T08:56:38.262Z,9.53
2022-11-23T08:57:38.356Z,9.44
2022-11-23T08:58:38.454Z,9.31
2022-11-23T08:59:38.516Z,9.20
2022-11-23T09:00:38.588Z,9.17
2022-11-23T09:01:38.733Z,9.23
2022-11-23T09:02:38.738Z,9.27
2022-11-23T09:03:38.858Z,9.34
2022-11-23T09:04:38.925Z,9.34
2022-11-23T09:05:39.026Z,9.41
2022-11-23T09:06:39.075Z,9.41
2022-11-23T09:07:39.211Z,9.45
2022-11-23T09:08:39.253Z,9.31
2022-11-23T09:09:39.315Z,9.24
2022-11-23T09:10:39.386Z,9.16
2022-11-23T09:11:39.489Z,9.15
2022-11-23T09:12:39.556Z,9.22
2022-11-23T09:13:39.665Z,9.31
2022-11-23T09:14:39.681Z,9.34
2022-11-23T09:15:39.778Z,9.31
2022-11-23T09:16:39.849Z,9.32
2022-11-23T09:17:39.955Z,9.38
2022-11-23T09:18:40.015Z,9.41
2022-11-23T09:19:40.097Z,9.44
2022-11-23T09:20:40.169Z,9.35
2022-11-23T09:21:40.263Z,9.41
2022-11-23T09:22:40.339Z,9.42
2022-11-23T09:23:40.462Z,9.34
2022-11-23T09:24:40.551Z,9.44
2022-11-23T09:25:40.607Z,9.53
2022-11-23T09:26:40.677Z,9.32
2022-11-23T09:27:40.752Z,9.22
2022-11-23T09:28:44.686Z,9.30
2022-11-23T09:29:40.902Z,9.32
2022-11-23T09:30:40.966Z,9.32
2022-11-23T09:31:41.071Z,9.20
2022-11-23T09:32:41.147Z,9.24
2022-11-23T09:33:41.240Z,9.34
2022-11-23T09:34:41.303Z,9.44
2022-11-23T09:35:43.967Z,9.55
2022-11-23T09:36:41.466Z,9.48
2022-11-23T09:37:41.563Z,9.44
2022-11-23T09:38:57.749Z,9.50
2022-11-23T09:39:41.735Z,9.42
2022-11-23T09:40:41.803Z,9.24
2022-11-23T09:41:41.901Z,9.31
2022-11-23T09:42:41.954Z,9.48
2022-11-23T09:43:42.055Z,9.60
2022-11-23T09:44:42.084Z,9.55
2022-11-23T09:45:42.184Z,9.65
2022-11-23T09:46:42.255Z,9.81
2022-11-23T09:47:42.351Z,9.96
2022-11-23T09:48:42.439Z,9.95
2022-11-23T09:49:42.502Z,9.85
2022-11-23T09:50:42.573Z,9.86
2022-11-23T09:51:42.646Z,9.99
2022-11-23T09:52:42.722Z,10.09
2022-11-23T09:53:42.831Z,10.14
2022-11-23T09:54:42.871Z,10.17
2022-11-23T09:55:42.940Z,10.14
2022-11-23T09:56:43.001Z,10.42
2022-11-23T09:57:43.092Z,10.46
2022-11-23T09:58:43.200Z,10.54
2022-11-23T09:59:43.240Z,10.39
2022-11-23T10:00:43.327Z,10.35
2022-11-23T10:01:43.427Z,10.38
2022-11-23T10:02:43.458Z,10.29
2022-11-23T10:03:48.563Z,10.26
2022-11-23T10:04:43.626Z,10.20
2022-11-23T10:05:43.710Z,10.24
2022-11-23T10:06:43.799Z,10.24
2022-11-23T10:07:43.916Z,10.25
2022-11-23T10:08:43.985Z,10.29
2022-11-23T10:09:44.025Z,10.28
2022-11-23T10:10:44.182Z,10.29
2022-11-23T10:11:44.284Z,10.26
2022-11-23T10:12:44.253Z,10.25
2022-11-23T10:13:44.359Z,10.14
2022-11-23T10:14:44.424Z,10.04
2022-11-23T10:15:44.497Z,10.09
2022-11-23T10:16:44.607Z,9.85
2022-11-23T10:17:44.665Z,9.74
2022-11-23T10:18:44.751Z,9.62
2022-11-23T10:19:44.803Z,9.53
2022-11-23T10:20:44.905Z,9.67
2022-11-23T10:21:44.959Z,9.93
2022-11-23T10:22:45.051Z,10.16
2022-11-23T10:23:45.257Z,10.32
2022-11-23T10:24:45.216Z,10.32
2022-11-23T10:25:45.254Z,10.10
2022-11-23T10:26:45.333Z,10.02
2022-11-23T10:27:45.405Z,9.92
2022-11-23T10:28:45.524Z,9.75
2022-11-23T10:29:45.546Z,9.62
2022-11-23T10:30:45.678Z,9.63
2022-11-23T10:31:45.703Z,9.75
2022-11-23T10:32:45.798Z,9.78
2022-11-23T10:33:45.893Z,9.83
2022-11-23T10:34:45.946Z,9.88
2022-11-23T10:35:46.022Z,9.89
2022-11-23T10:36:46.114Z,9.86
2022-11-23T10:37:46.183Z,9.89
2022-11-23T10:38:46.292Z,9.67
2022-11-23T10:39:46.371Z,9.60
2022-11-23T10:40:46.442Z,9.60
2022-11-23T10:41:46.526Z,9.63
2022-11-23T10:42:46.587Z,9.81
2022-11-23T10:43:46.696Z,9.88
2022-11-23T10:44:46.761Z,9.86
2022-11-23T10:45:46.841Z,9.89
2022-11-23T10:46:46.908Z,9.86
2022-11-23T10:47:46.989Z,9.95
2022-11-23T10:48:47.079Z,9.98
2022-11-23T10:49:47.141Z,9.96
2022-11-23T10:50:47.196Z,10.01
2022-11-23T10:51:47.306Z,10.09
2022-11-23T10:52:47.387Z,10.13
2022-11-23T10:53:47.472Z,10.07
2022-11-23T10:54:47.517Z,9.96
2022-11-23T10:55:47.611Z,9.88
2022-11-23T10:56:47.675Z,9.93
2022-11-23T10:57:47.778Z,9.95
2022-11-23T10:58:47.882Z,9.88
2022-11-23T10:59:47.936Z,9.74
2022-11-23T11:00:48.015Z,9.80
2022-11-23T11:01:48.207Z,9.83
2022-11-23T11:02:48.204Z,9.88
2022-11-23T11:03:48.326Z,9.92
2022-11-23T11:04:48.386Z,9.93
2022-11-23T11:06:48.529Z,9.95
2022-11-23T11:07:48.613Z,9.92
2022-11-23T11:08:48.675Z,9.96
2022-11-23T11:09:48.741Z,10.06
2022-11-23T11:10:48.818Z,10.04
2022-11-23T11:11:48.898Z,10.02
2022-11-23T11:12:48.972Z,9.96
2022-11-23T11:13:49.094Z,9.89
2022-11-23T11:14:49.472Z,9.83
2022-11-23T11:15:49.241Z,9.86
2022-11-23T11:16:49.304Z,9.88
2022-11-23T11:17:49.383Z,9.80
2022-11-23T11:18:49.471Z,9.75
2022-11-23T11:19:49.527Z,9.75
2022-11-23T11:20:49.594Z,9.75
2022-11-23T11:21:49.687Z,9.78
2022-11-23T11:22:49.750Z,9.75
2022-11-23T11:23:49.872Z,9.83
2022-11-23T11:24:49.938Z,9.80
2022-11-23T11:25:50.010Z,9.81
2022-11-23T11:26:50.095Z,9.83
2022-11-23T11:27:50.150Z,9.70
2022-11-23T11:28:50.232Z,9.63
2022-11-23T11:29:50.288Z,9.67
2022-11-23T11:30:50.356Z,9.68
2022-11-23T11:31:50.456Z,9.65
2022-11-23T11:32:50.532Z,9.48
2022-11-23T11:33:50.631Z,9.49
2022-11-23T11:34:50.665Z,9.49
2022-11-23T11:35:50.752Z,9.49
2022-11-23T11:36:50.806Z,9.52
2022-11-23T11:37:50.908Z,9.48
2022-11-23T11:39:14.996Z,9.45
2022-11-23T11:39:51.093Z,9.42
2022-11-23T11:40:51.159Z,9.42
2022-11-23T11:41:51.259Z,9.37
2022-11-23T11:42:51.328Z,9.42
2022-11-23T11:43:51.431Z,9.42
2022-11-23T11:44:51.461Z,9.40
2022-11-23T11:46:21.436Z,9.38
2022-11-23T11:46:51.625Z,9.45
2022-11-23T11:47:51.725Z,9.50
2022-11-23T11:48:51.818Z,9.52
2022-11-23T11:49:51.872Z,9.49
2022-11-23T11:50:51.927Z,9.56
2022-11-23T11:51:52.032Z,9.55
2022-11-23T11:52:52.118Z,9.56
2022-11-23T11:53:52.209Z,9.55
2022-11-23T11:54:52.226Z,9.65
2022-11-23T11:55:52.322Z,9.77
2022-11-23T11:56:52.447Z,9.86
2022-11-23T11:57:52.486Z,9.91
2022-11-23T11:58:52.600Z,10.02
2022-11-23T11:59:52.653Z,10.07
2022-11-23T12:00:52.724Z,10.01
2022-11-23T12:01:52.824Z,9.83
2022-11-23T12:02:52.977Z,9.74
2022-11-23T12:03:53.011Z,9.75
2022-11-23T12:04:53.075Z,9.77
2022-11-23T12:05:53.189Z,9.81
2022-11-23T12:06:53.257Z,9.89
2022-11-23T12:07:53.391Z,10.02
2022-11-23T12:08:53.427Z,10.04
2022-11-23T12:09:53.495Z,10.09
2022-11-23T12:10:53.576Z,10.20
2022-11-23T12:11:53.645Z,10.28
2022-11-23T12:12:53.723Z,10.09
2022-11-23T12:13:53.826Z,10.09
2022-11-23T12:14:53.868Z,10.11
2022-11-23T12:15:53.965Z,10.20
2022-11-23T12:17:17.061Z,10.28
2022-11-23T12:17:54.122Z,10.35
2022-11-23T12:18:54.204Z,10.43
2022-11-23T12:19:54.288Z,10.34
2022-11-23T12:20:54.365Z,10.34
2022-11-23T12:21:55.897Z,10.22
2022-11-23T12:22:54.518Z,10.26
2022-11-23T12:23:54.602Z,10.34
2022-11-23T12:24:54.669Z,10.32
2022-11-23T12:25:54.748Z,10.28
2022-11-23T12:26:54.788Z,10.26
2022-11-23T12:27:54.857Z,10.31
2022-11-23T12:28:54.949Z,10.38
2022-11-23T12:29:55.009Z,10.46
2022-11-23T12:30:55.104Z,10.43
2022-11-23T12:31:55.160Z,10.52
2022-11-23T12:32:56.246Z,10.62
2022-11-23T12:33:55.488Z,10.76
2022-11-23T12:34:55.368Z,10.80
2022-11-23T12:35:55.450Z,10.81
2022-11-23T12:36:55.529Z,10.72
2022-11-23T12:37:55.602Z,10.55
2022-11-23T12:38:55.695Z,10.32
2022-11-23T12:39:55.763Z,10.29
2022-11-23T12:40:55.825Z,10.32
2022-11-23T12:41:55.925Z,10.26
2022-11-23T12:42:56.007Z,10.20
2022-11-23T12:43:56.119Z,10.17
2022-11-23T12:44:56.161Z,10.22
2022-11-23T12:45:56.231Z,10.31
2022-11-23T12:46:56.307Z,10.43
2022-11-23T12:47:56.380Z,10.54
2022-11-23T12:48:56.465Z,10.69
2022-11-23T12:49:56.539Z,10.75
2022-11-23T12:50:56.617Z,10.73
2022-11-23T12:51:56.706Z,10.68
2022-11-23T12:52:56.782Z,10.63
2022-11-23T12:53:56.937Z,10.68
2022-11-23T12:54:56.939Z,10.69
2022-11-23T12:55:57.026Z,10.78
2022-11-23T12:56:57.119Z,10.80
2022-11-23T12:57:57.205Z,10.75
2022-11-23T12:58:57.277Z,10.76
2022-11-23T12:59:57.330Z,10.78
2022-11-23T13:00:57.421Z,10.76
2022-11-23T13:01:57.555Z,10.78
2022-11-23T13:02:57.566Z,10.78
2022-11-23T13:03:57.652Z,10.84
2022-11-23T13:04:57.714Z,10.86
2022-11-23T13:05:57.797Z,10.83
2022-11-23T13:07:28.440Z,10.75
2022-11-23T13:07:58.017Z,10.63
2022-11-23T13:08:58.067Z,10.65
2022-11-23T13:09:58.118Z,10.68
2022-11-23T13:10:58.186Z,10.72
2022-11-23T13:11:58.264Z,10.73
2022-11-23T13:12:58.340Z,10.78
2022-11-23T13:13:58.431Z,10.80
2022-11-23T13:14:58.516Z,10.83
2022-11-23T13:15:58.715Z,10.86
2022-11-23T13:16:58.756Z,10.86
2022-11-23T13:17:58.763Z,10.81